Time;durP1;ratioP1;P1;durP2;ratioP2;P2;SDS_P1;SDS_P2;PMS_P1;PMS_P2;Temp;Humidity;BMP_temperature;BMP_pressure;BME280_temperature;BME280_humidity;BME280_pressure;Samples;Min_cycle;Max_cycle;Signal;HPM_P1;HPM_P2
2021/11/27 00:01:04;;;;;;;20.90;10.80;;;2.30;99.90;;;;;;5026251;28;20041;-69
2021/11/27 00:03:30;;;;;;;26.88;10.02;;;;;;;;;;5023150;28;20382;-69
2021/11/27 00:05:56;;;;;;;24.27;10.55;;;;;;;;;;5023981;28;20525;-68
2021/11/27 00:08:22;;;;;;;28.52;10.52;;;;;;;;;;5024406;28;20117;-70
2021/11/27 00:10:48;;;;;;;23.40;10.20;;;;;;;;;;5024109;28;20032;-69
2021/11/27 00:13:14;;;;;;;22.30;10.40;;;;;;;;;;5024058;28;20040;-69
2021/11/27 00:15:41;;;;;;;27.40;10.15;;;;;;;;;;5024443;28;20868;-69
2021/11/27 00:18:07;;;;;;;26.63;10.65;;;;;;;;;;5023479;28;20037;-69
2021/11/27 00:20:33;;;;;;;23.58;10.15;;;;;;;;;;5020643;28;20029;-69
2021/11/27 00:22:59;;;;;;;23.17;11.05;;;;;;;;;;5023670;28;20056;-69
2021/11/27 00:25:25;;;;;;;21.73;10.45;;;;;;;;;;5023434;28;20099;-69
2021/11/27 00:27:51;;;;;;;20.38;9.40;;;;;;;;;;5023938;28;20066;-70
2021/11/27 00:30:17;;;;;;;24.67;10.23;;;;;;;;;;5005598;28;20033;-70
2021/11/27 00:32:43;;;;;;;23.02;10.45;;;;;;;;;;5009337;28;20032;-69
2021/11/27 00:35:09;;;;;;;24.17;10.73;;;;;;;;;;5023989;28;20489;-69
2021/11/27 00:37:35;;;;;;;26.45;10.65;;;;;;;;;;5016440;28;20076;-69
2021/11/27 00:40:01;;;;;;;29.00;11.50;;;1.90;99.90;;;;;;5005636;28;20213;-69
2021/11/27 00:42:26;;;;;;;23.42;11.13;;;2.00;99.90;;;;;;5023671;28;20516;-69
2021/11/27 00:44:52;;;;;;;23.20;11.15;;;2.00;99.90;;;;;;5023140;28;20029;-69
2021/11/27 00:47:18;;;;;;;21.50;10.52;;;;;;;;;;5003684;28;20056;-68
2021/11/27 00:49:48;;;;;;;23.88;10.82;;;;;;;;;;5023111;28;20029;-69
2021/11/27 00:52:14;;;;;;;21.50;9.80;;;;;;;;;;4998673;28;20025;-69
2021/11/27 00:54:40;;;;;;;23.42;10.60;;;1.80;99.90;;;;;;5007578;28;20133;-69
2021/11/27 00:57:06;;;;;;;25.50;11.05;;;1.70;99.90;;;;;;5024932;28;20033;-69
2021/11/27 00:59:31;;;;;;;24.95;10.90;;;1.50;99.90;;;;;;5023386;28;20105;-69
2021/11/27 01:01:58;;;;;;;30.17;12.02;;;1.70;99.90;;;;;;5000915;28;20064;-69
2021/11/27 01:04:24;;;;;;;33.75;12.48;;;;;;;;;;5001757;28;20382;-69
2021/11/27 01:06:50;;;;;;;24.35;10.20;;;;;;;;;;5021928;28;20501;-69
2021/11/27 01:09:17;;;;;;;26.30;10.57;;;;;;;;;;5023401;28;20678;-69
2021/11/27 01:11:43;;;;;;;24.38;10.73;;;;;;;;;;5022993;28;20040;-69
2021/11/27 01:14:09;;;;;;;28.70;10.65;;;;;;;;;;5024855;28;20029;-69
2021/11/27 01:16:35;;;;;;;30.33;11.40;;;;;;;;;;4995010;28;20052;-71
2021/11/27 01:19:00;;;;;;;28.10;11.73;;;1.20;99.90;;;;;;5023253;28;20040;-69
2021/11/27 01:21:26;;;;;;;23.75;10.55;;;;;;;;;;5022849;28;20406;-69
2021/11/27 01:23:53;;;;;;;23.52;10.80;;;;;;;;;;5022484;28;20478;-70
2021/11/27 01:26:19;;;;;;;30.15;10.93;;;;;;;;;;5005123;28;20175;-69
2021/11/27 01:28:45;;;;;;;26.83;11.25;;;;;;;;;;5022625;28;20029;-69
2021/11/27 01:31:11;;;;;;;25.55;10.68;;;;;;;;;;5021537;28;20021;-69
2021/11/27 01:33:37;;;;;;;23.90;10.10;;;;;;;;;;5003878;28;20026;-69
2021/11/27 01:36:02;;;;;;;23.45;11.07;;;1.40;99.90;;;;;;5014802;28;20037;-69
2021/11/27 01:38:29;;;;;;;29.65;10.55;;;;;;;;;;5004710;28;20612;-69
2021/11/27 01:40:54;;;;;;;28.02;11.18;;;1.30;99.90;;;;;;5001510;28;20037;-69
2021/11/27 01:43:20;;;;;;;26.73;10.57;;;;;;;;;;5001345;28;20041;-69
2021/11/27 01:45:47;;;;;;;24.92;10.68;;;;;;;;;;5021797;28;20109;-70
2021/11/27 01:48:14;;;;;;;23.27;9.82;;;1.40;99.90;;;;;;5026355;28;20365;-69
2021/11/27 01:50:39;;;;;;;25.48;10.80;;;1.10;99.90;;;;;;5025466;28;20064;-69
2021/11/27 01:53:05;;;;;;;22.20;10.55;;;;;;;;;;5026227;28;20397;-69
2021/11/27 01:55:31;;;;;;;26.88;10.23;;;1.50;99.90;;;;;;5026166;28;20036;-70
2021/11/27 01:57:57;;;;;;;25.33;10.60;;;1.10;99.90;;;;;;5008087;28;20407;-69
2021/11/27 02:00:23;;;;;;;26.05;11.02;;;1.20;99.90;;;;;;5029431;28;20030;-69
2021/11/27 02:02:49;;;;;;;23.88;11.13;;;1.30;99.90;;;;;;5028778;28;20127;-69
2021/11/27 02:05:17;;;;;;;28.30;10.85;;;;;;;;;;5008281;28;20128;-69
2021/11/27 02:07:42;;;;;;;21.88;10.13;;;1.30;99.90;;;;;;5026923;28;20029;-69
2021/11/27 02:10:08;;;;;;;22.50;9.68;;;;;;;;;;5026035;28;20115;-70
2021/11/27 02:12:34;;;;;;;26.90;10.90;;;1.00;99.90;;;;;;5028685;28;20033;-64
2021/11/27 02:15:00;;;;;;;26.40;10.13;;;1.20;99.90;;;;;;5008190;28;20029;-63
2021/11/27 02:17:26;;;;;;;30.45;10.75;;;;;;;;;;5008423;28;20144;-63
2021/11/27 02:19:53;;;;;;;27.38;10.95;;;1.20;99.90;;;;;;5026856;28;20045;-64
2021/11/27 02:22:19;;;;;;;24.42;10.55;;;;;;;;;;5007783;28;20033;-63
2021/11/27 02:24:47;;;;;;;28.95;10.70;;;;;;;;;;5028775;28;20409;-63
2021/11/27 02:27:14;;;;;;;26.33;10.93;;;1.30;99.90;;;;;;5008425;28;20017;-64
2021/11/27 02:29:40;;;;;;;25.55;10.73;;;;;;;;;;5025946;28;20036;-63
2021/11/27 02:32:06;;;;;;;24.88;10.10;;;;;;;;;;5025546;28;20037;-64
2021/11/27 02:34:34;;;;;;;24.05;10.45;;;;;;;;;;5002429;28;20036;-63
2021/11/27 02:37:00;;;;;;;24.20;10.43;;;;;;;;;;5026226;28;20044;-63
2021/11/27 02:39:26;;;;;;;29.38;11.43;;;;;;;;;;5004704;28;20069;-63
2021/11/27 02:41:55;;;;;;;31.35;11.77;;;;;;;;;;5025469;28;20041;-63
2021/11/27 02:44:24;;;;;;;25.45;10.52;;;;;;;;;;5006005;28;20040;-63
2021/11/27 02:46:50;;;;;;;26.02;10.40;;;;;;;;;;5030340;28;20045;-63
2021/11/27 02:49:17;;;;;;;29.67;10.77;;;;;;;;;;5025836;28;20116;-63
2021/11/27 02:51:45;;;;;;;23.73;9.18;;;;;;;;;;4990455;28;20032;-63
2021/11/27 02:54:11;;;;;;;20.63;10.10;;;;;;;;;;5023422;28;20522;-63
2021/11/27 02:56:37;;;;;;;25.42;9.93;;;;;;;;;;5024401;28;20087;-63
2021/11/27 02:59:03;;;;;;;23.85;10.63;;;;;;;;;;5002584;28;20033;-63
2021/11/27 03:01:29;;;;;;;26.58;10.52;;;;;;;;;;5004069;28;20036;-63
2021/11/27 03:03:55;;;;;;;25.52;9.88;;;;;;;;;;5025029;28;20124;-63
2021/11/27 03:06:21;;;;;;;25.50;10.43;;;;;;;;;;5025340;28;20049;-63
2021/11/27 03:08:48;;;;;;;24.25;10.45;;;;;;;;;;5023949;28;20579;-63
2021/11/27 03:11:13;;;;;;;23.90;10.32;;;0.90;99.90;;;;;;5009458;28;20104;-63
2021/11/27 03:13:40;;;;;;;20.23;9.65;;;;;;;;;;5025004;28;20654;-63
2021/11/27 03:16:08;;;;;;;20.05;9.55;;;;;;;;;;5024306;28;20029;-64
2021/11/27 03:18:34;;;;;;;21.85;9.88;;;;;;;;;;5004356;28;20021;-63
2021/11/27 03:21:00;;;;;;;27.10;10.65;;;;;;;;;;5023539;28;20040;-63
2021/11/27 03:23:26;;;;;;;22.85;9.98;;;0.80;99.90;;;;;;5006662;28;20083;-63
2021/11/27 03:25:52;;;;;;;29.95;10.70;;;;;;;;;;5025820;28;20037;-63
2021/11/27 03:28:19;;;;;;;25.52;10.48;;;;;;;;;;5003914;28;20018;-63
2021/11/27 03:30:44;;;;;;;27.95;10.95;;;0.70;99.90;;;;;;5006238;28;20030;-63
2021/11/27 03:33:11;;;;;;;25.15;10.55;;;0.70;99.90;;;;;;5001321;28;20160;-63
2021/11/27 03:35:37;;;;;;;26.10;11.10;;;0.70;99.90;;;;;;5024935;28;20723;-63
2021/11/27 03:38:03;;;;;;;26.30;11.18;;;0.50;99.90;;;;;;5023192;28;20152;-63
2021/11/27 03:40:30;;;;;;;25.73;11.05;;;;;;;;;;5024307;28;20381;-63
2021/11/27 03:42:58;;;;;;;24.90;10.98;;;;;;;;;;5016522;28;20038;-64
2021/11/27 03:45:25;;;;;;;23.50;10.57;;;0.50;99.90;;;;;;5003075;28;20025;-63
2021/11/27 03:47:50;;;;;;;26.98;10.82;;;0.50;99.90;;;;;;5009800;28;20043;-63
2021/11/27 03:50:16;;;;;;;27.70;10.88;;;0.50;99.90;;;;;;5006180;28;20026;-63
2021/11/27 03:52:41;;;;;;;25.95;10.68;;;0.10;99.90;;;;;;5006038;28;20039;-63
2021/11/27 03:55:12;;;;;;;24.40;10.40;;;;;;;;;;5003445;28;20444;-63
2021/11/27 03:57:39;;;;;;;25.77;11.38;;;;;;;;;;5026287;28;20113;-63
2021/11/27 04:00:05;;;;;;;25.15;10.45;;;0.80;99.90;;;;;;5024891;28;20033;-64
2021/11/27 04:02:40;;;;;;;25.00;10.18;;;1.00;99.90;;;;;;5022682;28;20041;-63
2021/11/27 04:05:06;;;;;;;21.05;11.10;;;0.80;99.90;;;;;;5022275;28;20107;-63
2021/11/27 04:07:32;;;;;;;23.77;10.10;;;0.90;99.90;;;;;;5021004;28;20481;-63
2021/11/27 04:09:58;;;;;;;23.83;10.30;;;;;;;;;;5010661;28;20033;-63
2021/11/27 04:12:24;;;;;;;21.27;9.77;;;0.30;99.90;;;;;;5003637;28;20022;-69
2021/11/27 04:14:50;;;;;;;24.65;10.68;;;0.90;99.90;;;;;;5008182;28;20504;-69
2021/11/27 04:17:16;;;;;;;24.08;9.95;;;;;;;;;;5026980;28;20025;-69
2021/11/27 04:19:44;;;;;;;28.23;10.68;;;1.00;99.90;;;;;;5016812;28;20087;-69
2021/11/27 04:22:10;;;;;;;25.25;10.52;;;1.00;99.90;;;;;;5001915;28;20037;-69
2021/11/27 04:24:43;;;;;;;22.38;10.50;;;1.00;99.90;;;;;;4999978;28;20161;-69
2021/11/27 04:27:09;;;;;;;25.52;10.05;;;1.20;99.90;;;;;;5005064;28;20425;-69
2021/11/27 04:29:35;;;;;;;23.42;10.20;;;;;;;;;;5023473;28;20028;-69
2021/11/27 04:32:01;;;;;;;22.13;9.80;;;;;;;;;;5002580;28;20057;-69
2021/11/27 04:34:28;;;;;;;24.02;9.43;;;;;;;;;;5003178;28;20037;-69
2021/11/27 04:36:55;;;;;;;25.10;10.75;;;;;;;;;;5023743;28;20726;-69
2021/11/27 04:39:21;;;;;;;20.25;9.43;;;;;;;;;;5004070;28;20128;-69
2021/11/27 04:41:47;;;;;;;23.80;10.10;;;;;;;;;;5023570;28;20132;-69
2021/11/27 04:44:13;;;;;;;20.88;10.60;;;;;;;;;;5005051;28;20033;-69
2021/11/27 04:46:39;;;;;;;19.77;9.73;;;1.00;99.90;;;;;;5023785;28;20037;-69
2021/11/27 04:49:05;;;;;;;24.15;9.73;;;;;;;;;;5023525;28;20026;-69
2021/11/27 04:51:31;;;;;;;25.08;10.07;;;;;;;;;;5002792;28;20033;-69
2021/11/27 04:53:57;;;;;;;23.65;9.55;;;;;;;;;;5024005;28;20049;-69
2021/11/27 04:56:23;;;;;;;19.67;8.98;;;;;;;;;;5008909;28;20017;-69
2021/11/27 04:58:49;;;;;;;22.95;10.20;;;1.10;99.90;;;;;;5004918;28;20505;-69
2021/11/27 05:01:17;;;;;;;21.88;10.15;;;;;;;;;;5004940;28;20040;-69
2021/11/27 05:03:55;;;;;;;21.20;9.45;;;;;;;;;;5008739;28;20029;-69
2021/11/27 05:06:21;;;;;;;26.52;10.07;;;;;;;;;;5022901;28;20786;-69
2021/11/27 05:08:46;;;;;;;22.90;9.57;;;1.20;99.90;;;;;;5024736;28;20107;-70
2021/11/27 05:11:13;;;;;;;25.08;9.90;;;;;;;;;;5025341;28;20068;-69
2021/11/27 05:13:39;;;;;;;25.15;10.30;;;1.30;99.90;;;;;;5000160;28;20025;-70
2021/11/27 05:16:06;;;;;;;24.88;9.35;;;1.50;99.90;;;;;;5005013;28;20044;-70
2021/11/27 05:18:32;;;;;;;21.08;9.77;;;;;;;;;;5024925;28;20549;-70
2021/11/27 05:20:58;;;;;;;26.23;9.80;;;;;;;;;;5019109;28;20048;-69
2021/11/27 05:23:24;;;;;;;23.27;10.38;;;;;;;;;;5002408;28;20033;-70
2021/11/27 05:25:52;;;;;;;26.92;9.82;;;;;;;;;;5002468;28;20672;-70
2021/11/27 05:28:36;;;;;;;23.38;10.20;;;;;;;;;;5026037;28;20692;-70
2021/11/27 05:31:17;;;;;;;27.98;8.85;;;;;;;;;;5000654;28;20767;-70
2021/11/27 05:36:10;;;;;;;23.08;9.50;;;;;;;;;;5022471;28;20025;-70
2021/11/27 05:38:36;;;;;;;21.23;9.48;;;;;;;;;;5021638;28;20039;-70
2021/11/27 05:41:02;;;;;;;22.20;9.00;;;;;;;;;;5022439;28;20026;-70
2021/11/27 05:43:29;;;;;;;25.00;9.05;;;;;;;;;;5001826;28;20045;-70
2021/11/27 05:45:56;;;;;;;19.30;9.20;;;;;;;;;;5022659;28;20051;-70
2021/11/27 05:48:27;;;;;;;22.48;9.40;;;;;;;;;;5002625;28;20032;-69
2021/11/27 05:51:26;;;;;;;21.77;9.57;;;;;;;;;;4986496;28;20060;-69
2021/11/27 05:53:52;;;;;;;19.98;8.18;;;;;;;;;;5022197;28;20030;-69
2021/11/27 05:56:18;;;;;;;22.10;8.43;;;;;;;;;;5022774;28;20496;-69
2021/11/27 05:58:44;;;;;;;21.90;8.98;;;;;;;;;;5022348;28;20034;-69
2021/11/27 06:01:10;;;;;;;21.83;9.52;;;;;;;;;;5013538;28;20033;-70
2021/11/27 06:03:36;;;;;;;20.70;9.43;;;;;;;;;;5021481;28;20025;-70
2021/11/27 06:06:02;;;;;;;19.80;8.68;;;;;;;;;;5002150;28;20038;-69
2021/11/27 06:08:29;;;;;;;19.40;9.60;;;;;;;;;;5022004;28;20029;-70
2021/11/27 06:10:55;;;;;;;21.92;9.07;;;;;;;;;;5021586;28;20037;-69
2021/11/27 06:13:21;;;;;;;22.05;8.23;;;;;;;;;;5020296;28;20029;-69
2021/11/27 06:15:47;;;;;;;16.85;8.23;;;;;;;;;;5021991;28;20444;-70
2021/11/27 06:18:13;;;;;;;17.17;7.82;;;;;;;;;;5019817;28;20440;-70
2021/11/27 06:20:39;;;;;;;21.00;8.68;;;;;;;;;;5007012;28;20045;-70
2021/11/27 06:23:05;;;;;;;20.75;8.80;;;;;;;;;;5021888;28;20038;-70
2021/11/27 06:25:31;;;;;;;18.45;8.80;;;;;;;;;;5016697;28;20026;-70
2021/11/27 06:27:57;;;;;;;18.70;8.52;;;;;;;;;;5018819;28;20147;-70
2021/11/27 06:30:23;;;;;;;17.73;8.30;;;;;;;;;;5002813;28;20791;-70
2021/11/27 06:32:49;;;;;;;17.00;8.43;;;;;;;;;;5019202;28;20153;-70
2021/11/27 06:35:15;;;;;;;20.52;8.48;;;;;;;;;;5025494;28;20116;-69
2021/11/27 06:37:41;;;;;;;23.02;7.93;;;;;;;;;;5008001;28;20034;-70
2021/11/27 06:40:07;;;;;;;19.83;8.63;;;;;;;;;;5025506;28;20029;-69
2021/11/27 06:42:40;;;;;;;22.60;8.98;;;;;;;;;;5003445;28;20038;-70
2021/11/27 06:45:20;;;;;;;19.52;8.10;;;;;;;;;;5006663;28;20886;-69
2021/11/27 06:48:00;;;;;;;21.60;8.10;;;;;;;;;;5017977;28;20112;-69
2021/11/27 06:50:25;;;;;;;20.08;9.10;;;1.00;99.90;;;;;;5022202;28;20053;-69
2021/11/27 06:52:51;;;;;;;17.30;9.35;;;;;;;;;;5016246;28;20072;-69
2021/11/27 06:55:17;;;;;;;19.60;7.78;;;;;;;;;;5006614;28;20859;-70
2021/11/27 06:57:43;;;;;;;20.33;8.73;;;;;;;;;;5015604;28;20667;-70
2021/11/27 07:00:09;;;;;;;19.10;8.18;;;1.30;99.90;;;;;;5014107;28;20140;-69
2021/11/27 07:02:53;;;;;;;16.65;8.93;;;1.30;99.90;;;;;;5022991;28;20047;-70
2021/11/27 07:05:37;;;;;;;19.55;8.57;;;1.30;99.90;;;;;;5029172;28;20044;-70
2021/11/27 07:08:08;;;;;;;20.70;8.68;;;1.30;99.90;;;;;;5004205;28;20021;-70
2021/11/27 07:10:50;;;;;;;17.77;8.80;;;1.30;99.90;;;;;;5008807;28;20033;-70
2021/11/27 07:13:21;;;;;;;18.63;8.73;;;1.30;99.90;;;;;;5004106;28;20025;-70
2021/11/27 07:15:49;;;;;;;18.73;7.97;;;1.00;99.90;;;;;;5023095;28;20060;-70
2021/11/27 07:18:15;;;;;;;22.23;8.32;;;;;;;;;;5023732;28;20847;-70
2021/11/27 07:20:41;;;;;;;19.73;7.93;;;;;;;;;;5024701;28;20489;-69
2021/11/27 07:23:11;;;;;;;17.05;8.32;;;;;;;;;;5006067;28;20492;-70
2021/11/27 07:25:38;;;;;;;19.10;8.38;;;;;;;;;;5022152;28;20034;-69
2021/11/27 07:28:22;;;;;;;22.45;9.43;;;;;;;;;;5025611;28;20048;-69
2021/11/27 07:30:48;;;;;;;21.85;8.73;;;1.80;99.90;;;;;;5021923;28;20044;-69
2021/11/27 07:33:13;;;;;;;19.40;8.40;;;1.50;99.90;;;;;;5020392;28;20033;-70
2021/11/27 07:35:39;;;;;;;20.67;8.52;;;;;;;;;;5021737;28;20135;-74
2021/11/27 07:38:05;;;;;;;20.42;8.43;;;;;;;;;;5024540;28;20450;-72
2021/11/27 07:40:31;;;;;;;26.17;9.90;;;-0.80;99.90;;;;;;5014063;28;20564;-72
2021/11/27 07:42:58;;;;;;;18.55;8.73;;;;;;;;;;5022554;28;20044;-72
2021/11/27 07:45:34;;;;;;;19.42;8.63;;;1.50;99.90;;;;;;5020097;28;20044;-69
2021/11/27 07:48:18;;;;;;;22.15;8.68;;;;;;;;;;5006391;28;20579;-70
2021/11/27 07:51:03;;;;;;;19.20;7.83;;;;;;;;;;5023832;28;20080;-69
2021/11/27 07:53:36;;;;;;;29.58;9.52;;;2.10;99.90;;;;;;5021935;28;20417;-69
2021/11/27 07:56:02;;;;;;;21.75;9.35;;;;;;;;;;5016394;28;20041;-69
2021/11/27 07:58:28;;;;;;;20.42;9.68;;;;;;;;;;5019736;28;20025;-70
2021/11/27 08:00:54;;;;;;;21.45;8.90;;;1.60;99.90;;;;;;5024277;28;20033;-68
2021/11/27 08:03:19;;;;;;;20.42;9.07;;;1.50;99.90;;;;;;5020879;28;20036;-68
2021/11/27 08:05:45;;;;;;;22.70;9.43;;;;;;;;;;5021489;28;20774;-68
2021/11/27 08:08:12;;;;;;;19.13;8.90;;;;;;;;;;5017081;28;20029;-69
2021/11/27 08:10:38;;;;;;;21.40;9.43;;;;;;;;;;5023496;28;20041;-68
2021/11/27 08:13:04;;;;;;;20.83;9.27;;;;;;;;;;5022768;28;20157;-68
2021/11/27 08:15:30;;;;;;;23.65;10.10;;;;;;;;;;5024235;28;20045;-68
2021/11/27 08:17:56;;;;;;;23.27;9.30;;;;;;;;;;5022528;28;20037;-69
2021/11/27 08:20:22;;;;;;;23.02;9.05;;;;;;;;;;5023602;28;20044;-68
2021/11/27 08:22:48;;;;;;;27.60;11.20;;;2.00;99.90;;;;;;5020799;28;20041;-68
2021/11/27 08:25:15;;;;;;;27.02;11.10;;;;;;;;;;5022596;28;20033;-69
2021/11/27 08:27:41;;;;;;;25.50;10.43;;;;;;;;;;5021991;28;20140;-69
2021/11/27 08:30:07;;;;;;;24.70;9.95;;;;;;;;;;5020355;28;20079;-69
2021/11/27 08:32:33;;;;;;;25.13;10.82;;;;;;;;;;5024013;28;20021;-69
2021/11/27 08:34:58;;;;;;;24.02;10.20;;;2.40;99.90;;;;;;5020096;28;20033;-69
2021/11/27 08:37:24;;;;;;;27.10;10.85;;;;;;;;;;5023149;28;20076;-69
2021/11/27 08:39:50;;;;;;;22.50;9.88;;;;;;;;;;5019666;28;20076;-69
2021/11/27 08:42:21;;;;;;;24.13;10.00;;;;;;;;;;5023356;28;20760;-68
2021/11/27 08:44:46;;;;;;;26.23;11.10;;;2.60;99.90;;;;;;5022277;28;20087;-69
2021/11/27 08:47:12;;;;;;;27.25;11.60;;;2.50;99.90;;;;;;5019009;28;20470;-69
2021/11/27 08:49:38;;;;;;;25.42;10.70;;;;;;;;;;5022899;28;20037;-69
2021/11/27 08:52:04;;;;;;;23.55;10.52;;;2.30;99.90;;;;;;5022489;28;20053;-70
2021/11/27 08:54:30;;;;;;;24.55;10.38;;;2.50;99.90;;;;;;5022677;28;20125;-68
2021/11/27 08:56:56;;;;;;;23.17;10.43;;;2.50;99.90;;;;;;5020631;28;20029;-69
2021/11/27 08:59:23;;;;;;;23.63;11.07;;;;;;;;;;5020537;28;20025;-69
2021/11/27 09:01:49;;;;;;;24.42;10.57;;;;;;;;;;5023151;28;20652;-68
2021/11/27 09:04:15;;;;;;;26.45;11.07;;;;;;;;;;5017100;28;20030;-69
2021/11/27 09:06:41;;;;;;;23.90;10.30;;;;;;;;;;5019957;28;20873;-69
2021/11/27 09:09:07;;;;;;;23.85;11.43;;;;;;;;;;5022181;28;20029;-69
2021/11/27 09:11:34;;;;;;;29.75;11.82;;;;;;;;;;5020354;28;20025;-68
2021/11/27 09:14:00;;;;;;;40.42;12.38;;;;;;;;;;5016581;28;20025;-69
2021/11/27 09:16:25;;;;;;;40.20;11.73;;;4.80;99.90;;;;;;5024176;28;20098;-68
2021/11/27 09:18:51;;;;;;;32.97;12.95;;;2.30;99.90;;;;;;5019171;28;20025;-69
2021/11/27 09:21:17;;;;;;;24.95;10.77;;;;;;;;;;5020680;28;20871;-68
2021/11/27 09:23:43;;;;;;;24.70;10.88;;;;;;;;;;5023062;28;20493;-70
2021/11/27 09:26:09;;;;;;;26.85;11.43;;;;;;;;;;5021575;28;20037;-69
2021/11/27 09:28:35;;;;;;;28.00;11.85;;;;;;;;;;5020643;28;20138;-69
2021/11/27 09:31:01;;;;;;;26.42;12.70;;;;;;;;;;5001850;28;20033;-69
2021/11/27 09:33:29;;;;;;;24.77;10.68;;;;;;;;;;5022203;28;20021;-69
2021/11/27 09:36:15;;;;;;;29.30;10.57;;;2.70;99.90;;;;;;5021406;28;20029;-69
2021/11/27 09:38:42;;;;;;;26.35;11.18;;;;;;;;;;5017727;28;20579;-69
2021/11/27 09:41:08;;;;;;;27.08;12.52;;;;;;;;;;5016836;28;20033;-69
2021/11/27 09:43:34;;;;;;;25.58;10.70;;;;;;;;;;5021076;28;20099;-69
2021/11/27 09:46:00;;;;;;;29.52;11.65;;;;;;;;;;5022523;28;20037;-68
2021/11/27 09:48:26;;;;;;;32.28;11.60;;;;;;;;;;5021682;28;20088;-69
2021/11/27 09:50:53;;;;;;;28.27;11.50;;;;;;;;;;5001541;28;20032;-69
2021/11/27 09:53:19;;;;;;;30.52;11.75;;;;;;;;;;5022636;28;20638;-68
2021/11/27 09:55:45;;;;;;;27.60;12.48;;;;;;;;;;5017988;28;20501;-68
2021/11/27 09:58:11;;;;;;;24.95;12.10;;;;;;;;;;5022551;28;20032;-68
2021/11/27 10:00:37;;;;;;;36.38;13.80;;;;;;;;;;5022944;28;20037;-68
2021/11/27 10:03:03;;;;;;;45.08;16.98;;;;;;;;;;5021174;28;20025;-68
2021/11/27 10:05:29;;;;;;;42.65;13.95;;;;;;;;;;5020813;28;20022;-68
2021/11/27 10:07:54;;;;;;;31.45;13.35;;;3.50;99.90;;;;;;5021154;28;20033;-68
2021/11/27 10:10:20;;;;;;;33.45;13.68;;;3.40;99.90;;;;;;5021187;28;20038;-68
2021/11/27 10:12:46;;;;;;;29.85;12.18;;;4.00;99.90;;;;;;5022707;28;20144;-69
2021/11/27 10:15:13;;;;;;;40.47;14.35;;;;;;;;;;5026187;28;20147;-68
2021/11/27 10:17:39;;;;;;;35.63;14.07;;;;;;;;;;5022225;28;20030;-69
2021/11/27 10:20:05;;;;;;;34.20;13.45;;;;;;;;;;5024583;28;20095;-69
2021/11/27 10:22:32;;;;;;;51.92;18.92;;;;;;;;;;5025837;28;20082;-68
2021/11/27 10:24:58;;;;;;;33.38;13.35;;;;;;;;;;5024724;28;20037;-69
2021/11/27 10:27:23;;;;;;;45.30;19.25;;;3.30;99.90;;;;;;5011436;28;20094;-68
2021/11/27 10:29:49;;;;;;;47.35;16.48;;;;;;;;;;5025734;28;20029;-68
2021/11/27 10:32:15;;;;;;;39.70;14.52;;;;;;;;;;5025013;28;20029;-68
2021/11/27 10:34:41;;;;;;;40.88;14.65;;;;;;;;;;5024981;28;20037;-69
2021/11/27 10:37:08;;;;;;;39.33;14.60;;;;;;;;;;5017477;28;20386;-68
2021/11/27 10:39:34;;;;;;;34.35;12.95;;;;;;;;;;5024389;28;20029;-68
2021/11/27 10:42:00;;;;;;;39.95;14.48;;;;;;;;;;5023419;28;20037;-68
2021/11/27 10:44:26;;;;;;;44.13;15.02;;;;;;;;;;5021300;28;20044;-68
2021/11/27 10:46:52;;;;;;;39.50;14.00;;;;;;;;;;5022785;28;20044;-68
2021/11/27 10:49:18;;;;;;;29.48;11.65;;;3.50;99.90;;;;;;5025533;28;20049;-68
2021/11/27 10:51:43;;;;;;;33.03;13.48;;;3.30;99.90;;;;;;5025195;28;20470;-68
2021/11/27 10:54:09;;;;;;;26.73;12.60;;;3.30;99.90;;;;;;5024552;28;20684;-68
2021/11/27 10:56:34;;;;;;;29.52;11.93;;;3.40;99.90;;;;;;5025379;28;20087;-68
2021/11/27 10:59:00;;;;;;;33.45;12.88;;;;;;;;;;5025191;28;20064;-68
2021/11/27 11:01:26;;;;;;;39.30;14.40;;;;;;;;;;5024008;28;20136;-68
2021/11/27 11:03:52;;;;;;;36.80;13.50;;;;;;;;;;5002164;28;20116;-68
2021/11/27 11:06:18;;;;;;;37.13;13.77;;;;;;;;;;5022262;28;20042;-67
2021/11/27 11:08:45;;;;;;;40.25;14.55;;;;;;;;;;5024903;28;20586;-63
2021/11/27 11:11:11;;;;;;;39.28;14.60;;;;;;;;;;5024147;28;20044;-63
2021/11/27 11:13:37;;;;;;;29.20;11.90;;;;;;;;;;5024802;28;20029;-63
2021/11/27 11:16:03;;;;;;;30.88;13.65;;;;;;;;;;5024388;28;20029;-63
2021/11/27 11:18:28;;;;;;;35.17;13.32;;;3.90;99.90;;;;;;5025233;28;20037;-63
2021/11/27 11:20:54;;;;;;;31.98;14.07;;;;;;;;;;5022642;28;20036;-63
2021/11/27 11:23:20;;;;;;;33.95;14.02;;;3.90;99.90;;;;;;5024377;28;20087;-63
2021/11/27 11:25:46;;;;;;;46.35;14.70;;;;;;;;;;5019658;28;20128;-62
2021/11/27 11:28:12;;;;;;;37.28;14.30;;;;;;;;;;5021139;28;20036;-63
2021/11/27 11:30:39;;;;;;;40.17;14.95;;;;;;;;;;5024069;28;20037;-63
2021/11/27 11:33:05;;;;;;;39.60;14.60;;;;;;;;;;5023392;28;20108;-63
2021/11/27 11:35:32;;;;;;;50.80;15.90;;;;;;;;;;5024241;28;20033;-63
2021/11/27 11:37:58;;;;;;;40.00;14.68;;;;;;;;;;5024534;28;20405;-63
2021/11/27 11:40:24;;;;;;;39.60;14.20;;;;;;;;;;5024909;28;20045;-63
2021/11/27 11:42:50;;;;;;;31.73;13.32;;;;;;;;;;5022469;28;20037;-63
2021/11/27 11:45:16;;;;;;;36.40;13.93;;;;;;;;;;5021571;28;20032;-64
2021/11/27 11:47:42;;;;;;;29.67;13.45;;;;;;;;;;5024586;28;20523;-63
2021/11/27 11:50:08;;;;;;;30.77;13.73;;;;;;;;;;5024395;28;20021;-63
2021/11/27 11:52:35;;;;;;;31.30;13.63;;;;;;;;;;5023191;28;20468;-63
2021/11/27 11:55:01;;;;;;;28.50;12.95;;;3.60;99.90;;;;;;5023597;28;20037;-63
2021/11/27 11:57:26;;;;;;;34.22;14.05;;;4.20;99.90;;;;;;5005135;28;20037;-63
2021/11/27 11:59:52;;;;;;;28.80;13.45;;;4.00;99.90;;;;;;5021631;28;20118;-64
2021/11/27 12:02:18;;;;;;;34.80;15.15;;;3.90;99.90;;;;;;5022298;28;20771;-63
2021/11/27 12:04:44;;;;;;;32.10;14.70;;;;;;;;;;5024160;28;20065;-64
2021/11/27 12:07:09;;;;;;;31.35;13.98;;;4.10;99.90;;;;;;5023919;28;20032;-63
2021/11/27 12:09:35;;;;;;;28.13;14.57;;;4.10;99.90;;;;;;5023635;28;20021;-63
2021/11/27 12:12:02;;;;;;;34.65;14.30;;;4.10;99.90;;;;;;5011887;28;20541;-64
2021/11/27 12:14:29;;;;;;;35.78;14.52;;;;;;;;;;5005980;28;20776;-64
2021/11/27 12:16:54;;;;;;;41.35;14.52;;;4.60;99.90;;;;;;5013392;28;20037;-63
2021/11/27 12:19:20;;;;;;;34.33;14.32;;;4.20;99.90;;;;;;5024099;28;20044;-64
2021/11/27 12:21:45;;;;;;;31.30;13.23;;;4.10;99.90;;;;;;5023438;28;20552;-64
2021/11/27 12:24:11;;;;;;;27.67;12.43;;;;;;;;;;5023325;28;20029;-63
2021/11/27 12:26:37;;;;;;;40.28;14.88;;;;;;;;;;5023779;28;20061;-63
2021/11/27 12:29:04;;;;;;;33.92;14.43;;;;;;;;;;5021318;28;20124;-63
2021/11/27 12:31:30;;;;;;;37.08;15.18;;;;;;;;;;5019682;28;20032;-64
2021/11/27 12:33:59;;;;;;;28.85;12.82;;;;;;;;;;5023153;28;20041;-64
2021/11/27 12:36:25;;;;;;;30.92;13.15;;;;;;;;;;5020900;28;20029;-64
2021/11/27 12:38:51;;;;;;;27.95;12.32;;;;;;;;;;5023336;28;20039;-63
2021/11/27 12:41:17;;;;;;;32.20;12.80;;;;;;;;;;5023200;28;20029;-63
2021/11/27 12:43:43;;;;;;;31.25;13.38;;;;;;;;;;5023099;28;20043;-64
2021/11/27 12:46:09;;;;;;;32.60;12.80;;;;;;;;;;5023269;28;20033;-64
2021/11/27 12:48:35;;;;;;;38.50;14.10;;;;;;;;;;5023492;28;20029;-63
2021/11/27 12:51:01;;;;;;;28.88;13.35;;;;;;;;;;5021560;28;20030;-63
2021/11/27 12:53:27;;;;;;;28.75;13.13;;;;;;;;;;5023013;28;20025;-63
2021/11/27 12:55:53;;;;;;;32.88;12.82;;;;;;;;;;5023070;28;20378;-63
2021/11/27 12:58:19;;;;;;;37.65;14.57;;;;;;;;;;5002374;28;20033;-63
2021/11/27 13:00:45;;;;;;;57.08;16.88;;;;;;;;;;5022880;28;20037;-64
2021/11/27 13:03:11;;;;;;;43.67;15.73;;;;;;;;;;5009340;28;20045;-64
2021/11/27 13:05:37;;;;;;;42.03;16.27;;;;;;;;;;5023434;28;20144;-64
2021/11/27 13:08:03;;;;;;;36.83;14.57;;;;;;;;;;5022287;28;20121;-63
2021/11/27 13:10:29;;;;;;;35.30;14.90;;;;;;;;;;5019248;28;20057;-64
2021/11/27 13:12:55;;;;;;;45.90;15.43;;;;;;;;;;5022402;28;20034;-64
2021/11/27 13:15:22;;;;;;;31.20;14.18;;;;;;;;;;5022730;28;20040;-64
2021/11/27 13:17:48;;;;;;;30.67;13.40;;;;;;;;;;5021460;28;20056;-64
2021/11/27 13:20:13;;;;;;;34.15;16.08;;;3.80;99.90;;;;;;5022780;28;20056;-64
2021/11/27 13:22:39;;;;;;;39.50;19.35;;;3.90;99.90;;;;;;5022543;28;20497;-64
2021/11/27 13:25:04;;;;;;;43.88;21.45;;;3.80;99.90;;;;;;5009486;28;20435;-63
2021/11/27 13:27:30;;;;;;;39.53;16.25;;;3.70;99.90;;;;;;5023030;28;20128;-64
2021/11/27 13:29:55;;;;;;;31.75;14.95;;;3.70;99.90;;;;;;5021868;28;20033;-64
2021/11/27 13:32:21;;;;;;;34.28;14.80;;;3.50;99.90;;;;;;5022610;28;20025;-64
2021/11/27 13:34:46;;;;;;;32.83;14.88;;;3.50;99.90;;;;;;5018203;28;20156;-64
2021/11/27 13:37:12;;;;;;;33.67;15.38;;;3.40;99.90;;;;;;5021498;28;20057;-64
2021/11/27 13:39:37;;;;;;;33.70;15.13;;;3.30;99.90;;;;;;5022629;28;20107;-64
2021/11/27 13:42:03;;;;;;;37.58;16.10;;;3.30;99.90;;;;;;5019741;28;20034;-64
2021/11/27 13:44:29;;;;;;;36.58;16.65;;;3.50;99.90;;;;;;5022213;28;20064;-64
2021/11/27 13:46:55;;;;;;;36.92;15.65;;;;;;;;;;5022637;28;20040;-64